createdAt,value
2018-08-20T00:02:12.018Z,999.90
2018-08-20T00:04:46.543Z,999.90
2018-08-20T00:07:16.646Z,999.90
2018-08-20T00:09:45.739Z,999.90
2018-08-20T00:12:15.009Z,999.90
2018-08-20T00:14:44.534Z,999.90
2018-08-20T00:17:14.650Z,999.90
2018-08-20T00:19:44.075Z,999.90
2018-08-20T00:22:13.457Z,999.90
2018-08-20T00:24:43.326Z,999.90
2018-08-20T00:27:12.926Z,999.90
2018-08-20T00:29:42.905Z,999.90
2018-08-20T00:32:12.849Z,999.90
2018-08-20T00:34:43.973Z,999.90
2018-08-20T00:37:13.861Z,999.90
2018-08-20T00:39:44.310Z,999.90
2018-08-20T00:42:14.337Z,999.90
2018-08-20T00:44:44.561Z,999.90
2018-08-20T00:47:14.088Z,999.90
2018-08-20T00:49:43.735Z,999.90
2018-08-20T00:52:13.428Z,999.90
2018-08-20T00:54:43.100Z,999.90
2018-08-20T00:57:13.264Z,999.90
2018-08-20T00:59:43.774Z,999.90
2018-08-20T01:02:13.877Z,999.90
2018-08-20T01:04:43.205Z,999.90
2018-08-20T01:07:16.956Z,999.90
2018-08-20T01:09:46.077Z,999.90
2018-08-20T01:12:16.222Z,999.90
2018-08-20T01:14:45.697Z,999.90
2018-08-20T01:17:14.914Z,999.90
2018-08-20T01:19:44.161Z,999.90
2018-08-20T01:22:13.617Z,999.90
2018-08-20T01:24:43.578Z,999.90
2018-08-20T01:27:18.494Z,999.90
2018-08-20T01:29:47.884Z,999.90
2018-08-20T01:32:17.037Z,999.90
2018-08-20T01:34:46.409Z,999.90
2018-08-20T01:37:17.044Z,999.90
2018-08-20T01:39:46.696Z,999.90
2018-08-20T01:42:16.670Z,999.90
2018-08-20T01:44:47.214Z,999.90
2018-08-20T01:47:16.564Z,999.90
2018-08-20T01:49:45.837Z,999.90
2018-08-20T01:52:15.225Z,999.90
2018-08-20T01:54:44.494Z,999.90
2018-08-20T01:57:13.921Z,999.90
2018-08-20T01:59:43.373Z,999.90
2018-08-20T02:02:12.908Z,999.90
2018-08-20T02:04:44.356Z,999.90
2018-08-20T02:07:14.375Z,999.90
2018-08-20T02:09:44.251Z,999.90
2018-08-20T02:12:13.784Z,999.90
2018-08-20T02:14:43.843Z,999.90
2018-08-20T02:17:14.031Z,999.90
2018-08-20T02:19:43.466Z,999.90
2018-08-20T02:22:12.861Z,999.90
2018-08-20T02:24:42.272Z,999.90
2018-08-20T02:27:11.647Z,999.90
2018-08-20T02:29:40.634Z,999.90
2018-08-20T02:32:09.788Z,999.90
2018-08-20T02:34:38.410Z,999.90
2018-08-20T02:37:07.310Z,999.90
2018-08-20T02:39:36.301Z,999.90
2018-08-20T02:42:05.446Z,999.90
2018-08-20T02:44:34.377Z,999.90
2018-08-20T02:47:03.636Z,999.90
2018-08-20T02:49:32.680Z,999.90
2018-08-20T02:52:01.435Z,999.90
2018-08-20T02:54:30.029Z,999.90
2018-08-20T02:56:58.684Z,999.90
2018-08-20T02:59:27.281Z,999.90
2018-08-20T03:01:55.897Z,999.90
2018-08-20T03:04:24.481Z,999.90
2018-08-20T03:06:53.090Z,999.90
2018-08-20T03:09:21.676Z,999.90
2018-08-20T03:11:50.314Z,999.90
2018-08-20T03:14:19.549Z,999.90
2018-08-20T03:16:48.490Z,999.90
2018-08-20T03:19:17.663Z,999.90
2018-08-20T03:21:47.006Z,999.90
2018-08-20T03:24:17.271Z,999.90
2018-08-20T03:26:46.775Z,999.90
2018-08-20T03:29:16.788Z,999.90
2018-08-20T03:31:47.449Z,999.90
2018-08-20T03:34:17.142Z,999.90
2018-08-20T03:36:46.370Z,999.90
2018-08-20T03:39:15.928Z,999.90
2018-08-20T03:41:45.641Z,999.90
2018-08-20T03:44:15.310Z,999.90
2018-08-20T03:46:45.031Z,999.90
2018-08-20T03:49:15.596Z,999.90
2018-08-20T03:51:45.133Z,999.90
2018-08-20T03:54:14.802Z,999.90
2018-08-20T03:56:44.947Z,999.90
2018-08-20T03:59:31.856Z,999.90
2018-08-20T04:02:03.441Z,999.90
2018-08-20T04:04:32.484Z,999.90
2018-08-20T04:07:04.421Z,999.90
2018-08-20T04:09:33.941Z,999.90
2018-08-20T04:12:03.921Z,999.90
2018-08-20T04:14:33.209Z,999.90
2018-08-20T04:17:02.550Z,999.90
2018-08-20T04:19:31.500Z,999.90
2018-08-20T04:22:00.292Z,999.90
2018-08-20T04:24:28.997Z,999.90
2018-08-20T04:26:57.641Z,999.90
2018-08-20T04:29:27.162Z,999.90
2018-08-20T04:31:55.765Z,999.90
2018-08-20T04:34:24.745Z,999.90
2018-08-20T04:36:53.390Z,999.90
2018-08-20T04:39:21.993Z,999.90
2018-08-20T04:41:50.587Z,999.90
2018-08-20T04:44:19.530Z,999.90
2018-08-20T04:46:48.517Z,999.90
2018-08-20T04:49:17.556Z,999.90
2018-08-20T04:51:47.136Z,999.90
2018-08-20T04:54:16.133Z,999.90
2018-08-20T04:56:45.418Z,999.90
2018-08-20T04:59:14.695Z,999.90
2018-08-20T05:01:43.981Z,999.90
2018-08-20T05:04:13.567Z,999.90
2018-08-20T05:06:42.990Z,999.90
2018-08-20T05:09:12.728Z,999.90
2018-08-20T05:11:41.958Z,999.90
2018-08-20T05:14:11.262Z,999.90
2018-08-20T05:16:40.972Z,999.90
2018-08-20T05:19:09.970Z,999.90
2018-08-20T05:21:39.733Z,999.90
2018-08-20T05:24:08.517Z,999.90
2018-08-20T05:26:37.185Z,999.90
2018-08-20T05:29:06.053Z,999.90
2018-08-20T05:31:34.841Z,999.90
2018-08-20T05:34:03.821Z,999.90
2018-08-20T05:36:32.873Z,999.90
2018-08-20T05:39:02.409Z,999.90
2018-08-20T05:41:31.601Z,999.90
2018-08-20T05:44:00.345Z,999.90
2018-08-20T05:46:28.959Z,999.90
2018-08-20T05:48:57.583Z,999.90
2018-08-20T05:51:26.229Z,999.90
2018-08-20T05:53:54.857Z,999.90
2018-08-20T05:56:23.533Z,999.90
2018-08-20T05:58:52.185Z,999.90
2018-08-20T06:01:20.788Z,999.90
2018-08-20T06:03:49.945Z,999.90
2018-08-20T06:06:19.108Z,999.90
2018-08-20T06:08:47.802Z,999.90
2018-08-20T06:11:16.797Z,999.90
2018-08-20T06:13:45.956Z,999.90
2018-08-20T06:16:15.149Z,999.90
2018-08-20T06:18:44.827Z,999.90
2018-08-20T06:21:14.161Z,999.90
2018-08-20T06:23:43.349Z,999.90
2018-08-20T06:26:13.189Z,999.90
2018-08-20T06:28:42.440Z,999.90
2018-08-20T06:31:11.569Z,999.90
2018-08-20T06:33:40.761Z,999.90
2018-08-20T06:36:09.932Z,999.90
2018-08-20T06:38:38.988Z,999.90
2018-08-20T06:41:07.948Z,999.90
2018-08-20T06:43:36.525Z,999.90
2018-08-20T06:46:05.661Z,999.90
2018-08-20T06:48:34.411Z,999.90
2018-08-20T06:51:03.453Z,999.90
2018-08-20T06:53:32.412Z,999.90
2018-08-20T06:56:01.149Z,999.90
2018-08-20T06:58:29.785Z,999.90
2018-08-20T07:00:58.409Z,999.90
2018-08-20T07:03:27.033Z,999.90
2018-08-20T07:05:55.709Z,999.90
2018-08-20T07:08:24.340Z,999.90
2018-08-20T07:10:52.954Z,999.90
2018-08-20T07:13:31.725Z,999.90
2018-08-20T07:16:00.810Z,999.90
2018-08-20T07:18:29.586Z,999.90
2018-08-20T07:20:58.241Z,999.90
2018-08-20T07:23:27.246Z,999.90
2018-08-20T07:25:55.971Z,999.90
2018-08-20T07:28:24.693Z,999.90
2018-08-20T07:30:53.394Z,999.90
2018-08-20T07:33:22.073Z,999.90
2018-08-20T07:35:50.736Z,999.90
2018-08-20T07:38:20.123Z,999.90
2018-08-20T07:40:48.857Z,999.90
2018-08-20T07:43:17.727Z,999.90
2018-08-20T07:45:46.981Z,999.90
2018-08-20T07:48:17.351Z,999.90
2018-08-20T07:50:46.443Z,999.90
2018-08-20T07:53:16.024Z,999.90
2018-08-20T07:55:45.408Z,999.90
2018-08-20T07:58:14.961Z,999.90
2018-08-20T08:00:45.262Z,999.90
2018-08-20T08:03:15.123Z,999.90
2018-08-20T08:05:44.838Z,999.90
2018-08-20T08:08:14.236Z,999.90
2018-08-20T08:10:43.722Z,999.90
2018-08-20T08:13:13.041Z,999.90
2018-08-20T08:15:42.254Z,999.90
2018-08-20T08:18:11.859Z,999.90
2018-08-20T08:20:41.223Z,999.90
2018-08-20T08:23:11.265Z,999.90
2018-08-20T08:25:40.526Z,999.90
2018-08-20T08:28:10.728Z,999.90
2018-08-20T08:30:39.668Z,999.90
2018-08-20T08:33:08.476Z,999.90
2018-08-20T08:35:37.137Z,999.90
2018-08-20T08:38:05.905Z,999.90
2018-08-20T08:40:34.553Z,999.90
2018-08-20T08:43:03.535Z,999.90
2018-08-20T08:45:32.637Z,999.90
2018-08-20T08:48:01.345Z,999.90
2018-08-20T08:50:30.076Z,999.90
2018-08-20T08:52:58.716Z,999.90
2018-08-20T08:55:27.350Z,999.90
2018-08-20T08:57:56.082Z,999.90
2018-08-20T09:00:24.812Z,999.90
2018-08-20T09:02:53.453Z,999.90
2018-08-20T09:05:22.057Z,999.90
2018-08-20T09:07:51.108Z,999.90
2018-08-20T09:10:21.188Z,999.90
2018-08-20T09:12:50.093Z,999.90
2018-08-20T09:15:18.847Z,999.90
2018-08-20T09:17:47.833Z,999.90
2018-08-20T09:20:17.721Z,999.90
2018-08-20T09:22:46.672Z,999.90
2018-08-20T09:25:16.541Z,999.90
2018-08-20T09:27:46.205Z,999.90
2018-08-20T09:30:18.417Z,999.90
2018-08-20T09:32:47.770Z,999.90
2018-08-20T09:35:16.817Z,999.90
2018-08-20T09:37:46.051Z,999.90
2018-08-20T09:40:15.858Z,999.90
2018-08-20T09:42:45.246Z,999.90
2018-08-20T09:45:14.712Z,999.90
2018-08-20T09:47:44.366Z,999.90
2018-08-20T09:50:15.998Z,999.90
2018-08-20T09:52:46.336Z,999.90
2018-08-20T09:55:15.674Z,999.90
2018-08-20T09:57:45.077Z,999.90
2018-08-20T10:00:21.368Z,999.90
2018-08-20T10:02:50.766Z,999.90
2018-08-20T10:05:20.025Z,999.90
2018-08-20T10:07:49.380Z,999.90
2018-08-20T10:10:18.436Z,999.90
2018-08-20T10:12:47.575Z,999.90
2018-08-20T10:15:18.042Z,999.90
2018-08-20T10:17:47.305Z,999.90
2018-08-20T10:20:17.158Z,999.90
2018-08-20T10:22:46.613Z,999.90
2018-08-20T10:25:17.202Z,999.90
2018-08-20T10:27:48.330Z,999.90
2018-08-20T10:30:18.914Z,999.90
2018-08-20T10:32:48.007Z,999.90
2018-08-20T10:35:17.617Z,999.90
2018-08-20T10:37:46.893Z,999.90
2018-08-20T10:40:16.579Z,999.90
2018-08-20T10:42:46.183Z,999.90
2018-08-20T10:45:17.648Z,999.90
2018-08-20T10:47:48.300Z,999.90
2018-08-20T10:50:18.466Z,999.90
2018-08-20T10:52:48.932Z,999.90
2018-08-20T10:55:19.200Z,999.90
2018-08-20T10:57:48.574Z,999.90
2018-08-20T11:00:17.676Z,999.90
2018-08-20T11:02:46.971Z,999.90
2018-08-20T11:05:17.866Z,999.90
2018-08-20T11:07:48.724Z,999.90
2018-08-20T11:10:17.848Z,999.90
2018-08-20T11:12:47.578Z,999.90
2018-08-20T11:15:16.712Z,999.90
2018-08-20T11:17:46.015Z,999.90
2018-08-20T11:20:16.676Z,999.90
2018-08-20T11:22:45.917Z,999.90
2018-08-20T11:25:15.880Z,999.90
2018-08-20T11:27:45.249Z,999.90
2018-08-20T11:30:15.850Z,999.90
2018-08-20T11:32:45.713Z,999.90
2018-08-20T11:35:14.966Z,999.90
2018-08-20T11:37:44.634Z,999.90
2018-08-20T11:40:13.794Z,999.90
2018-08-20T11:42:43.363Z,999.90
2018-08-20T11:45:14.481Z,999.90
2018-08-20T11:47:44.869Z,999.90
2018-08-20T11:50:13.966Z,999.90
2018-08-20T11:52:44.437Z,999.90
2018-08-20T11:55:13.836Z,999.90
2018-08-20T11:57:43.239Z,999.90
2018-08-20T12:00:14.647Z,999.90
2018-08-20T12:02:44.597Z,999.90
2018-08-20T12:05:15.702Z,999.90
2018-08-20T12:07:45.046Z,999.90
2018-08-20T12:10:14.838Z,999.90
2018-08-20T12:12:44.802Z,999.90
2018-08-20T12:15:14.265Z,999.90
2018-08-20T12:17:43.794Z,999.90
2018-08-20T12:20:13.212Z,999.90
2018-08-20T12:22:43.415Z,999.90
2018-08-20T12:25:15.139Z,815.55
2018-08-20T12:27:46.177Z,999.90
2018-08-20T12:30:15.602Z,999.90
2018-08-20T12:32:45.088Z,146.82
2018-08-20T12:35:14.517Z,126.85
2018-08-20T12:37:44.374Z,118.70
2018-08-20T12:40:14.511Z,103.85
2018-08-20T12:42:44.348Z,135.30
2018-08-20T12:45:14.087Z,134.32
2018-08-20T12:47:44.271Z,114.15
2018-08-20T12:50:15.685Z,114.25
2018-08-20T12:52:45.813Z,180.93
2018-08-20T12:55:15.842Z,132.22
2018-08-20T12:57:46.750Z,200.05
2018-08-20T13:00:16.306Z,118.75
2018-08-20T13:02:46.450Z,197.25
2018-08-20T13:05:16.009Z,160.85
2018-08-20T13:07:46.029Z,166.25
2018-08-20T13:10:16.239Z,196.07
2018-08-20T13:12:46.089Z,208.78
2018-08-20T13:15:15.763Z,179.32
2018-08-20T13:17:45.147Z,201.02
2018-08-20T13:20:15.869Z,208.90
2018-08-20T13:22:45.988Z,213.40
2018-08-20T13:25:15.637Z,222.78
2018-08-20T13:27:45.353Z,219.95
2018-08-20T13:30:14.851Z,204.68
2018-08-20T13:32:44.683Z,173.38
2018-08-20T13:35:14.339Z,243.05
2018-08-20T13:37:43.881Z,221.30
2018-08-20T13:40:13.951Z,110.83
2018-08-20T13:42:43.418Z,143.90
2018-08-20T13:45:12.980Z,170.38
2018-08-20T13:47:44.005Z,155.82
2018-08-20T13:50:15.618Z,193.30
2018-08-20T13:52:46.697Z,72.92
2018-08-20T13:55:16.588Z,64.77
2018-08-20T13:57:50.121Z,74.75
2018-08-20T14:00:20.849Z,66.65
2018-08-20T14:02:50.256Z,46.83
2018-08-20T14:05:19.122Z,46.20
2018-08-20T14:07:48.614Z,65.37
2018-08-20T14:10:18.072Z,61.08
2018-08-20T14:12:47.648Z,101.02
2018-08-20T14:15:17.021Z,95.70
2018-08-20T14:17:46.565Z,102.15
2018-08-20T14:20:16.569Z,145.10
2018-08-20T14:22:46.306Z,166.73
2018-08-20T14:25:17.761Z,162.25
2018-08-20T14:27:47.015Z,170.95
2018-08-20T14:30:17.037Z,212.70
2018-08-20T14:32:46.749Z,255.15
2018-08-20T14:35:16.016Z,240.22
2018-08-20T14:37:45.023Z,240.85
2018-08-20T14:40:16.782Z,185.52
2018-08-20T14:42:46.255Z,100.92
2018-08-20T14:45:16.803Z,91.70
2018-08-20T14:47:46.407Z,64.47
2018-08-20T14:50:17.062Z,63.20
2018-08-20T14:52:46.356Z,63.85
2018-08-20T14:55:15.501Z,56.68
2018-08-20T14:57:45.372Z,64.50
2018-08-20T15:00:15.578Z,71.57
2018-08-20T15:02:45.249Z,65.75
2018-08-20T15:05:15.385Z,118.33
2018-08-20T15:07:44.911Z,91.75
2018-08-20T15:10:14.812Z,340.23
2018-08-20T15:12:45.411Z,108.00
2018-08-20T15:15:15.323Z,121.80
2018-08-20T15:17:45.204Z,122.80
2018-08-20T15:20:15.507Z,60.50
2018-08-20T15:22:47.140Z,139.37
2018-08-20T15:25:16.629Z,93.23
2018-08-20T15:27:46.319Z,74.35
2018-08-20T15:30:16.031Z,94.77
2018-08-20T15:32:46.660Z,105.87
2018-08-20T15:35:16.169Z,999.90
2018-08-20T15:37:45.704Z,141.40
2018-08-20T15:40:15.146Z,113.70
2018-08-20T15:42:45.472Z,999.90
2018-08-20T15:45:15.154Z,138.13
2018-08-20T15:47:45.297Z,999.90
2018-08-20T15:50:15.301Z,219.03
2018-08-20T15:52:45.246Z,999.90
2018-08-20T15:55:15.170Z,135.20
2018-08-20T15:57:44.908Z,999.90
2018-08-20T16:00:16.006Z,158.67
2018-08-20T16:02:45.941Z,132.47
2018-08-20T16:05:15.631Z,999.90
2018-08-20T16:07:46.843Z,104.23
2018-08-20T16:10:16.764Z,738.60
2018-08-20T16:12:46.806Z,103.93
2018-08-20T16:15:16.118Z,120.67
2018-08-20T16:17:45.471Z,65.60
2018-08-20T16:20:17.048Z,62.60
2018-08-20T16:22:46.422Z,73.50
2018-08-20T16:25:18.074Z,67.83
2018-08-20T16:27:47.675Z,50.67
2018-08-20T16:30:16.903Z,161.03
2018-08-20T16:32:46.733Z,51.28
2018-08-20T16:35:16.614Z,65.17
2018-08-20T16:37:45.929Z,150.70
2018-08-20T16:40:15.803Z,86.00
2018-08-20T16:42:45.505Z,90.60
2018-08-20T16:45:14.726Z,53.90
2018-08-20T16:47:44.641Z,53.15
2018-08-20T16:50:14.849Z,56.83
2018-08-20T16:52:44.445Z,58.23
2018-08-20T16:55:14.650Z,50.55
2018-08-20T16:57:44.339Z,45.95
2018-08-20T17:00:15.053Z,52.07
2018-08-20T17:02:44.951Z,78.02
2018-08-20T17:05:15.323Z,801.25
2018-08-20T17:07:45.103Z,116.12
2018-08-20T17:10:14.916Z,64.47
2018-08-20T17:12:45.350Z,798.00
2018-08-20T17:15:16.975Z,123.53
2018-08-20T17:17:46.488Z,90.30
2018-08-20T17:20:18.596Z,83.07
2018-08-20T17:22:48.304Z,999.90
2018-08-20T17:25:17.688Z,999.90
2018-08-20T17:27:52.380Z,999.90
2018-08-20T17:30:22.565Z,212.67
2018-08-20T17:32:51.166Z,999.90
2018-08-20T17:35:20.780Z,999.90
2018-08-20T17:37:52.578Z,999.90
2018-08-20T17:40:21.190Z,999.90
2018-08-20T17:42:49.829Z,999.90
2018-08-20T17:45:18.741Z,999.90
2018-08-20T17:47:48.149Z,999.90
2018-08-20T17:50:29.887Z,999.90
2018-08-20T17:52:59.548Z,999.90
2018-08-20T17:55:28.463Z,999.90
2018-08-20T17:57:57.081Z,999.90
2018-08-20T18:00:31.453Z,999.90
2018-08-20T18:03:00.110Z,999.90
2018-08-20T18:05:28.722Z,999.90
2018-08-20T18:07:57.325Z,999.90
2018-08-20T18:10:25.989Z,999.90
2018-08-20T18:12:55.019Z,999.90
2018-08-20T18:15:23.637Z,999.90
2018-08-20T18:17:53.962Z,999.90
2018-08-20T18:20:22.661Z,999.90
2018-08-20T18:22:51.778Z,999.90
2018-08-20T18:25:21.233Z,999.90
2018-08-20T18:27:50.597Z,999.90
2018-08-20T18:30:19.616Z,999.90
2018-08-20T18:33:00.102Z,999.90
2018-08-20T18:35:33.049Z,999.90
2018-08-20T18:38:03.101Z,999.90
2018-08-20T18:40:32.531Z,999.90
2018-08-20T18:43:01.226Z,999.90
2018-08-20T18:45:29.965Z,999.90
2018-08-20T18:47:58.602Z,999.90
2018-08-20T18:50:27.279Z,999.90
2018-08-20T18:52:56.036Z,999.90
2018-08-20T18:55:24.705Z,999.90
2018-08-20T18:57:53.346Z,999.90
2018-08-20T19:00:22.076Z,999.90
2018-08-20T19:02:55.139Z,999.90
2018-08-20T19:05:23.804Z,999.90
2018-08-20T19:07:52.403Z,999.90
2018-08-20T19:10:22.470Z,999.90
2018-08-20T19:12:51.144Z,999.90
2018-08-20T19:15:36.698Z,999.90
2018-08-20T19:18:06.681Z,999.90
2018-08-20T19:20:35.373Z,999.90
2018-08-20T19:23:04.100Z,999.90
2018-08-20T19:25:32.829Z,999.90
2018-08-20T19:28:03.785Z,999.90
2018-08-20T19:30:33.197Z,999.90
2018-08-20T19:33:04.236Z,999.90
2018-08-20T19:35:36.735Z,999.90
2018-08-20T19:38:05.916Z,999.90
2018-08-20T19:40:34.618Z,999.90
2018-08-20T19:43:03.382Z,999.90
2018-08-20T19:45:36.694Z,999.90
2018-08-20T19:48:05.446Z,999.90
2018-08-20T19:50:34.081Z,999.90
2018-08-20T19:53:08.642Z,999.90
2018-08-20T19:55:37.253Z,999.90
2018-08-20T19:58:06.116Z,999.90
2018-08-20T20:00:34.636Z,999.90
2018-08-20T20:03:03.336Z,999.90
2018-08-20T20:05:32.581Z,999.90
2018-08-20T20:08:03.517Z,999.90
2018-08-20T20:10:32.272Z,999.90
2018-08-20T20:13:00.909Z,999.90
2018-08-20T20:15:32.257Z,999.90
2018-08-20T20:18:00.949Z,999.90
2018-08-20T20:20:29.537Z,999.90
2018-08-20T20:22:58.153Z,999.90
2018-08-20T20:25:26.830Z,999.90
2018-08-20T20:27:55.455Z,999.90
2018-08-20T20:30:24.105Z,999.90
2018-08-20T20:32:52.725Z,999.90
2018-08-20T20:35:21.521Z,999.90
2018-08-20T20:37:50.223Z,999.90
2018-08-20T20:40:18.838Z,999.90
2018-08-20T20:42:47.442Z,999.90
2018-08-20T20:45:16.046Z,999.90
2018-08-20T20:47:45.047Z,999.90
2018-08-20T20:50:13.694Z,999.90
2018-08-20T20:52:42.400Z,999.90
2018-08-20T20:55:10.994Z,999.90
2018-08-20T20:57:39.607Z,999.90
2018-08-20T21:00:09.118Z,999.90
2018-08-20T21:02:37.758Z,999.90
2018-08-20T21:05:10.357Z,999.90
2018-08-20T21:07:39.161Z,999.90
2018-08-20T21:10:08.231Z,999.90
2018-08-20T21:12:36.881Z,999.90
2018-08-20T21:15:06.898Z,999.90
2018-08-20T21:17:36.502Z,999.90
2018-08-20T21:20:05.713Z,999.90
2018-08-20T21:22:37.254Z,999.90
2018-08-20T21:25:06.817Z,999.90
2018-08-20T21:27:35.520Z,999.90
2018-08-20T21:30:04.245Z,999.90
2018-08-20T21:32:32.961Z,999.90
2018-08-20T21:35:01.689Z,999.90
2018-08-20T21:37:30.331Z,999.90
2018-08-20T21:39:58.949Z,999.90
2018-08-20T21:42:32.985Z,999.90
2018-08-20T21:45:01.693Z,999.90
2018-08-20T21:47:31.404Z,999.90
2018-08-20T21:50:00.049Z,999.90
2018-08-20T21:52:28.684Z,999.90
2018-08-20T21:54:57.291Z,999.90
2018-08-20T21:57:25.902Z,999.90
2018-08-20T22:00:02.838Z,999.90
2018-08-20T22:02:32.443Z,999.90
2018-08-20T22:05:01.252Z,999.90
2018-08-20T22:07:29.916Z,999.90
2018-08-20T22:09:59.138Z,999.90
2018-08-20T22:12:27.735Z,999.90
2018-08-20T22:14:56.366Z,999.90
2018-08-20T22:17:30.645Z,999.90
2018-08-20T22:19:59.982Z,999.90
2018-08-20T22:22:28.710Z,999.90
2018-08-20T22:24:58.589Z,999.90
2018-08-20T22:27:27.937Z,999.90
2018-08-20T22:30:00.364Z,999.90
2018-08-20T22:32:29.390Z,999.90
2018-08-20T22:34:58.225Z,999.90
2018-08-20T22:37:26.868Z,999.90
2018-08-20T22:40:00.805Z,999.90
2018-08-20T22:42:41.469Z,999.90
2018-08-20T22:45:11.350Z,999.90
2018-08-20T22:47:40.045Z,999.90
2018-08-20T22:50:08.772Z,999.90
2018-08-20T22:52:37.381Z,999.90
2018-08-20T22:55:07.457Z,999.90
2018-08-20T22:57:36.066Z,999.90
2018-08-20T23:00:11.739Z,999.90
2018-08-20T23:02:40.386Z,999.90
2018-08-20T23:05:13.178Z,999.90
2018-08-20T23:07:41.790Z,999.90
2018-08-20T23:10:10.445Z,999.90
2018-08-20T23:12:41.675Z,999.90
2018-08-20T23:15:11.692Z,999.90
2018-08-20T23:17:40.449Z,999.90
2018-08-20T23:20:20.890Z,999.90
2018-08-20T23:22:49.541Z,999.90
2018-08-20T23:25:18.178Z,999.90
2018-08-20T23:27:47.331Z,999.90
2018-08-20T23:30:15.994Z,999.90
2018-08-20T23:32:44.621Z,999.90
2018-08-20T23:35:13.244Z,999.90
2018-08-20T23:37:41.887Z,999.90
2018-08-20T23:40:10.666Z,999.90
2018-08-20T23:42:39.333Z,999.90
2018-08-20T23:45:08.025Z,999.90
2018-08-20T23:47:36.665Z,999.90
2018-08-20T23:50:05.893Z,999.90
2018-08-20T23:52:34.567Z,999.90
2018-08-20T23:55:03.305Z,999.90
2018-08-20T23:57:32.014Z,999.90
